X  Sluiten METAR luchtvaart weer gegevens      EBBR Brussels Airport
Temperatuur
9°C Temperatuur
6°C Dauwpunt
82% Vochtigheid



Wind
11 KM/U
7 MPH
3 M/S
6 KTS



190°
Zuid
Huidig weer

Wat bewolking Wat bewolking
Luchtdruk 1016.92 (hPa) - 30.03 (inHg)
Zicht 6.2 (mijl) - 10 (km)
Vliegveld
Vliegveld code EBBR

Locatie : Brussels Airport
Afstand: 14 (km)

Metar:
EBBR 250550Z 19006KT 9999 FEW014 BKN043 09/06 Q1017 TEMPO BKN014

Tijd: 2021-10-25 07:50 CEST